Main page
METAR-TAF:

METAR-TAF

Airports :

Pittsfield Penstone Municipal Airport

Pittsfield, Illinois, United States

latitude: 39-38-20N, longitude: 090-46-42W, elevation: 708 ft

Current weather observation

The report was made 17 minutes ago, at 21:15 UTC
Wind 12 mph from the North
Temperature 28°F
Humidity 43%
Pressure 30.71 in. Hg
Visibility: 10 miles
Clear sky

METAR: KPPQ 202115Z AUTO 35010KT 10SM CLR M02/M13 A3071 RMK AO2 T10241126

Time: 15:32 (21:32 UTC)


TAF: missing

Weather observations and forecasts of more than 4000 airports (METAR and TAF reports).

The available stations are represented by yellow and red dots on the map.

Hover mouse over dot to see the name of the station.

Then click to see weather observations and forecasts.

To change the map : click on the green buttons with a black cross to zoom in, on the green button with a dash to zoom out, or on the green arrows for adjacent maps.


METAR-TAF: